Time;durP1;ratioP1;P1;durP2;ratioP2;P2;SDS_P1;SDS_P2;PMS_P1;PMS_P2;Temp;Humidity;BMP_temperature;BMP_pressure;BME280_temperature;BME280_humidity;BME280_pressure;Samples;Min_cycle;Max_cycle;Signal;HPM_P1;HPM_P2
2023/04/18 04:09:10;;;;;;;;;;;;;;;8.23;100.00;100063.88;5591993;22;20429;-86
2023/04/18 04:11:35;;;;;;;;;;;;;;;8.25;100.00;100064.69;5041576;28;19921;-85
2023/04/18 04:14:01;;;;;;;;;;;;;;;8.27;100.00;100062.88;5041448;28;19917;-85
2023/04/18 04:16:26;;;;;;;;;;;;;;;8.29;100.00;100061.06;5042174;28;19917;-85
2023/04/18 04:18:51;;;;;;;;;;;;;;;8.32;100.00;100064.47;5043706;28;20315;-84
2023/04/18 04:21:17;;;;;;;;;;;;;;;8.36;100.00;100065.28;5044997;28;19920;-86
2023/04/18 04:23:45;;;;;;;;;;;;;;;8.36;100.00;100065.28;5044495;28;19916;-87
2023/04/18 04:26:10;;;;;;;;;;;;;;;8.39;100.00;100059.88;5027920;28;19969;-85
2023/04/18 04:28:35;;;;;;;;;;;;;;;8.41;100.00;100066.00;5027614;28;20401;-86
2023/04/18 04:31:02;;;;;;;;;;;;;;;8.43;100.00;100069.47;5045054;28;19921;-86
2023/04/18 04:33:27;;;;;;;;;;;;;;;8.45;100.00;100065.00;5027681;28;20394;-87
2023/04/18 04:36:00;;;;;;;;;;;;;;;8.48;100.00;100067.56;5027513;28;19921;-87
2023/04/18 04:38:29;;;;;;;;;;;;;;;8.51;100.00;100071.91;5044251;28;20011;-88
2023/04/18 04:40:56;;;;;;;;;;;;;;;8.51;100.00;100071.91;5027406;28;20275;-88
2023/04/18 04:43:21;;;;;;;;;;;;;;;8.53;100.00;100077.97;5045040;28;19924;-87
2023/04/18 04:45:48;;;;;;;;;;;;;;;8.54;100.00;100069.16;5045494;28;19924;-86
2023/04/18 04:48:13;;;;;;;;;;;;;;;8.53;100.00;100073.56;5045194;28;19921;-87
2023/04/18 04:50:40;;;;;;;;;;;;;;;8.55;100.00;100073.50;5044643;28;19940;-88
2023/04/18 04:53:05;;;;;;;;;;;;;;;8.58;100.00;100072.56;5043642;28;20360;-88
2023/04/18 04:55:31;;;;;;;;;;;;;;;8.59;100.00;100080.44;5044655;28;19931;-85
2023/04/18 04:57:56;;;;;;;;;;;;;;;8.60;100.00;100082.19;5044889;28;19916;-85
2023/04/18 05:00:22;;;;;;;;;;;;;;;8.62;100.00;100071.56;5044960;28;20015;-87
2023/04/18 05:02:47;;;;;;;;;;;;;;;8.64;100.00;100070.59;5026825;28;20340;-85
2023/04/18 05:05:13;;;;;;;;;;;;;;;8.66;100.00;100073.19;5044461;28;19924;-84
2023/04/18 05:07:38;;;;;;;;;;;;;;;8.68;100.00;100076.66;5044969;28;19916;-87
2023/04/18 05:10:04;;;;;;;;;;;;;;;8.68;100.00;100074.00;5043267;28;19976;-85
2023/04/18 05:12:30;;;;;;;;;;;;;;;8.68;100.00;100076.66;5044538;28;19927;-86
2023/04/18 05:14:55;;;;;;;;;;;;;;;8.68;100.00;100074.00;5044453;28;19917;-85
2023/04/18 05:17:20;;;;;;;;;;;;;;;8.71;100.00;100071.28;5044902;28;20376;-87
2023/04/18 05:19:45;;;;;;;;;;;;;;;8.72;100.00;100073.88;5044330;28;19921;-86
2023/04/18 05:22:11;;;;;;;;;;;;;;;8.73;100.00;100072.97;5044147;28;19988;-86
2023/04/18 05:24:36;;;;;;;;;;;;;;;8.77;100.00;100078.16;5025161;28;19916;-86
2023/04/18 05:27:01;;;;;;;;;;;;;;;8.77;100.00;100079.00;5044720;28;20410;-86
2023/04/18 05:29:27;;;;;;;;;;;;;;;8.77;100.00;100081.66;5043445;28;20360;-87
2023/04/18 05:31:52;;;;;;;;;;;;;;;8.78;100.00;100091.31;5044416;28;19921;-86
2023/04/18 05:34:17;;;;;;;;;;;;;;;8.79;100.00;100087.78;5044133;28;19917;-86
2023/04/18 05:36:42;;;;;;;;;;;;;;;8.80;100.00;100083.34;5044047;28;20306;-86
2023/04/18 05:39:08;;;;;;;;;;;;;;;8.80;100.00;100086.84;5024819;28;19999;-86
2023/04/18 05:41:33;;;;;;;;;;;;;;;8.82;100.00;100092.97;5044498;28;19925;-86
2023/04/18 05:43:58;;;;;;;;;;;;;;;8.83;100.00;100091.19;5044023;28;19917;-85
2023/04/18 05:46:23;;;;;;;;;;;;;;;8.83;100.00;100093.81;5043729;28;19971;-85
2023/04/18 05:48:49;;;;;;;;;;;;;;;8.84;100.00;100091.13;5044003;28;19948;-86
2023/04/18 05:51:14;;;;;;;;;;;;;;;8.17;100.00;100099.25;5044122;28;19925;-85
2023/04/18 05:53:39;;;;;;;;;;;;;;;6.96;100.00;100090.88;5024912;28;19924;-86
2023/04/18 05:56:05;;;;;;;;;;;;;;;6.39;100.00;100101.78;5043779;28;20364;-86
2023/04/18 05:58:30;;;;;;;;;;;;;;;6.23;100.00;100096.81;5043850;28;20283;-85
2023/04/18 06:00:56;;;;;;;;;;;;;;;6.02;100.00;100102.53;5043974;28;19921;-87
2023/04/18 06:03:21;;;;;;;;;;;;;;;5.87;100.00;100106.25;5043668;28;19917;-87
2023/04/18 06:05:46;;;;;;;;;;;;;;;5.74;100.00;100100.34;5043763;28;19921;-87
2023/04/18 06:08:11;;;;;;;;;;;;;;;5.68;100.00;100096.09;5024464;28;19917;-87
2023/04/18 06:10:37;;;;;;;;;;;;;;;5.63;100.00;100096.19;5043476;28;19921;-86
2023/04/18 06:13:02;;;;;;;;;;;;;;;5.54;100.00;100106.84;5043770;28;19924;-87
2023/04/18 06:15:27;;;;;;;;;;;;;;;5.43;100.00;100103.53;5043300;28;20393;-87
2023/04/18 06:17:53;;;;;;;;;;;;;;;5.40;100.00;100106.22;5025830;28;19917;-87
2023/04/18 06:20:22;;;;;;;;;;;;;;;5.29;100.00;100109.00;5043338;28;19959;-88
2023/04/18 06:22:52;;;;;;;;;;;;;;;5.26;100.00;100104.69;5041923;28;19925;-89
2023/04/18 06:25:27;;;;;;;;;;;;;;;5.19;100.00;100104.81;5025296;28;19927;-88
2023/04/18 06:27:52;;;;;;;;;;;;;;;5.17;100.00;100115.34;5025389;28;19978;-86
2023/04/18 06:30:20;;;;;;;;;;;;;;;5.17;100.00;100114.44;5042691;28;20435;-88
2023/04/18 06:32:46;;;;;;;;;;;;;;;5.09;100.00;100114.59;5043565;28;19916;-87
2023/04/18 06:35:11;;;;;;;;;;;;;;;5.03;100.00;100117.31;5043438;28;20372;-86
2023/04/18 06:37:36;;;;;;;;;;;;;;;4.93;100.00;100111.31;5024811;28;19921;-89
2023/04/18 06:40:02;;;;;;;;;;;;;;;4.92;100.00;100120.06;5041604;28;19917;-85
2023/04/18 07:56:20;;;;;;;;;;;;;;;8.46;100.00;100143.31;5953107;22;19933;-93
2023/04/18 07:58:45;;;;;;;;;;;;;;;8.47;100.00;100134.50;5020247;28;19925;-87
2023/04/18 08:01:14;;;;;;;;;;;;;;;8.50;100.00;100134.41;5026235;28;20374;-87
2023/04/18 08:03:39;;;;;;;;;;;;;;;8.50;100.00;100137.06;5013393;28;20359;-87
2023/04/18 08:06:04;;;;;;;;;;;;;;;8.54;100.00;100135.19;5029658;28;20062;-87
2023/04/18 08:08:30;;;;;;;;;;;;;;;8.56;100.00;100136.00;5012277;28;19921;-87
2023/04/18 08:10:55;;;;;;;;;;;;;;;8.58;100.00;100143.88;5011874;28;19925;-86
2023/04/18 08:13:20;;;;;;;;;;;;;;;8.61;100.00;100133.22;5013818;28;20372;-88
2023/04/18 08:15:46;;;;;;;;;;;;;;;8.63;100.00;100131.41;5031082;28;20384;-88
2023/04/18 08:18:11;;;;;;;;;;;;;;;8.64;100.00;100128.72;5030850;28;20421;-87
2023/04/18 08:20:39;;;;;;;;;;;;;;;8.66;100.00;100124.28;5029282;28;20016;-87
2023/04/18 08:23:07;;;;;;;;;;;;;;;8.67;100.00;100118.06;5030915;28;20352;-86
2023/04/18 08:25:32;;;;;;;;;;;;;;;8.69;100.00;100118.00;5011486;28;19917;-88
2023/04/18 08:27:58;;;;;;;;;;;;;;;8.70;100.00;100109.19;5012022;28;20008;-84
2023/04/18 08:30:23;;;;;;;;;;;;;;;8.71;100.00;100111.78;5013544;28;20375;-85
2023/04/18 08:32:48;;;;;;;;;;;;;;;8.74;100.00;100116.09;5012712;28;19932;-85
2023/04/18 08:35:14;;;;;;;;;;;;;;;8.77;100.00;100112.50;5031607;28;19924;-84
2023/04/18 08:37:42;;;;;;;;;;;;;;;8.77;100.00;100117.78;5030716;28;20015;-85
2023/04/18 08:40:07;;;;;;;;;;;;;;;8.80;100.00;100121.19;5028942;28;19925;-85
2023/04/18 08:42:34;;;;;;;;;;;;;;;8.78;100.00;100127.47;5011806;28;19937;-87
2023/04/18 08:45:00;;;;;;;;;;;;;;;8.82;100.00;100127.31;5012995;28;20401;-92
2023/04/18 08:47:27;;;;;;;;;;;;;;;8.82;100.00;100119.41;5030623;28;19925;-86
2023/04/18 08:49:54;;;;;;;;;;;;;;;8.83;100.00;100123.75;5028943;28;19921;-86
2023/04/18 08:52:21;;;;;;;;;;;;;;;8.85;100.00;100132.50;5031346;28;20047;-86
2023/04/18 08:54:48;;;;;;;;;;;;;;;8.87;100.00;100137.72;5010110;28;19928;-85
2023/04/18 08:57:17;;;;;;;;;;;;;;;8.82;100.00;100129.09;5028494;28;19943;-85
2023/04/18 08:59:44;;;;;;;;;;;;;;;7.19;100.00;100139.53;5030746;28;19917;-85
2023/04/18 09:02:10;;;;;;;;;;;;;;;6.58;100.00;100147.03;5028708;28;19925;-85
2023/04/18 09:04:40;;;;;;;;;;;;;;;6.24;100.00;100143.31;5030674;28;20360;-85
2023/04/18 09:07:19;;;;;;;;;;;;;;;6.12;100.00;100138.28;5034703;28;19988;-85
2023/04/18 09:09:49;;;;;;;;;;;;;;;5.98;100.00;100143.78;5032791;28;19925;-87
2023/04/18 09:12:18;;;;;;;;;;;;;;;5.81;100.00;100144.94;5033666;28;19924;-85
2023/04/18 09:14:49;;;;;;;;;;;;;;;5.71;100.00;100153.00;5034600;28;19940;-85
2023/04/18 09:17:17;;;;;;;;;;;;;;;5.61;100.00;100157.53;5015506;28;19924;-89
2023/04/18 09:19:49;;;;;;;;;;;;;;;5.57;100.00;100151.47;5032141;28;19960;-88
2023/04/18 09:22:15;;;;;;;;;;;;;;;5.42;100.00;100157.84;5033639;28;19925;-88
2023/04/18 09:24:46;;;;;;;;;;;;;;;5.44;100.00;100160.44;5033727;28;19986;-88
2023/04/18 09:27:14;;;;;;;;;;;;;;;5.42;100.00;100162.22;5031790;28;19987;-87
2023/04/18 09:29:46;;;;;;;;;;;;;;;5.27;100.00;100156.31;5033713;28;19921;-87
2023/04/18 09:32:24;;;;;;;;;;;;;;;5.27;100.00;100169.47;5032679;28;19933;-88
2023/04/18 09:34:53;;;;;;;;;;;;;;;5.20;100.00;100159.94;5032422;28;19925;-88
2023/04/18 09:37:19;;;;;;;;;;;;;;;5.24;100.00;100173.91;5015124;28;19921;-88
2023/04/18 09:39:44;;;;;;;;;;;;;;;5.09;100.00;100169.75;5032076;28;20013;-87
2023/04/18 09:42:10;;;;;;;;;;;;;;;5.11;100.00;100175.84;5012810;28;19921;-88
2023/04/18 09:44:36;;;;;;;;;;;;;;;5.14;100.00;100188.03;5033957;28;19921;-88
2023/04/18 09:47:01;;;;;;;;;;;;;;;5.08;100.00;100168.84;5032820;28;20907;-87
2023/04/18 09:49:27;;;;;;;;;;;;;;;4.96;100.00;100169.03;5014553;28;19961;-88
2023/04/18 09:51:53;;;;;;;;;;;;;;;5.21;100.00;100172.19;5014328;28;20008;-88
2023/04/18 09:54:21;;;;;;;;;;;;;;;6.06;100.00;100169.97;5014274;28;19927;-92
2023/04/18 09:56:49;;;;;;;;;;;;;;;6.50;100.00;100171.75;5032412;28;19917;-86
2023/04/18 09:59:15;;;;;;;;;;;;;;;6.76;100.00;100172.09;5030976;28;20362;-88
2023/04/18 10:01:43;;;;;;;;;;;;;;;6.95;100.00;100176.06;5014726;28;19928;-91
2023/04/18 10:04:10;;;;;;;;;;;;;;;7.06;100.00;100167.94;5015396;28;19967;-90
2023/04/18 10:06:38;;;;;;;;;;;;;;;7.28;100.00;100181.50;5015282;28;19921;-89
2023/04/18 10:09:04;;;;;;;;;;;;;;;7.38;100.00;100159.28;5013892;28;19931;-91
2023/04/18 10:11:30;;;;;;;;;;;;;;;7.42;100.00;100165.38;5030614;28;19921;-88
2023/04/18 10:14:01;;;;;;;;;;;;;;;7.51;100.00;100164.28;5013905;28;19936;-88
2023/04/18 10:16:27;;;;;;;;;;;;;;;7.88;100.00;100155.44;5031060;28;19971;-87
2023/04/18 10:18:52;;;;;;;;;;;;;;;8.43;100.00;100159.25;5031839;28;19925;-85
2023/04/18 10:21:18;;;;;;;;;;;;;;;8.21;100.00;100158.09;5032636;28;19924;-88
2023/04/18 10:23:47;;;;;;;;;;;;;;;8.14;100.00;100165.31;5032426;28;19995;-93
2023/04/18 10:26:13;;;;;;;;;;;;;;;8.14;100.00;100155.63;5014242;28;20357;-87
2023/04/18 10:28:48;;;;;;;;;;;;;;;8.18;100.00;100149.34;5032968;28;19943;-87
2023/04/18 10:31:15;;;;;;;;;;;;;;;8.26;100.00;100156.19;5014792;28;19964;-88
2023/04/18 10:33:44;;;;;;;;;;;;;;;8.31;100.00;100155.16;5032254;28;19929;-86
2023/04/18 10:36:16;;;;;;;;;;;;;;;8.32;100.00;100156.03;5031787;28;19917;-88
2023/04/18 10:38:49;;;;;;;;;;;;;;;8.33;100.00;100152.47;5030891;28;20336;-86
2023/04/18 10:41:25;;;;;;;;;;;;;;;8.35;100.00;100154.16;5030468;28;19913;-86
2023/04/18 10:44:06;;;;;;;;;;;;;;;8.37;100.00;100154.13;5031987;28;19971;-86
2023/04/18 10:46:31;;;;;;;;;;;;;;;8.44;100.00;100158.38;5032852;28;20284;-86
2023/04/18 10:49:13;;;;;;;;;;;;;;;8.45;100.00;100152.16;5031401;28;20016;-86
2023/04/18 10:51:38;;;;;;;;;;;;;;;8.49;100.00;100159.09;5031374;28;19971;-86
2023/04/18 10:54:06;;;;;;;;;;;;;;;8.54;100.00;100153.69;5032890;28;19921;-88
2023/04/18 10:56:31;;;;;;;;;;;;;;;8.54;100.00;100151.03;5030503;28;20311;-85
2023/04/18 10:59:00;;;;;;;;;;;;;;;8.54;100.00;100154.53;5031350;28;19929;-94
2023/04/18 11:01:27;;;;;;;;;;;;;;;8.58;100.00;100151.81;5031961;28;20383;-85
2023/04/18 11:03:53;;;;;;;;;;;;;;;8.61;100.00;100149.09;5030724;28;19921;-86
2023/04/18 11:06:19;;;;;;;;;;;;;;;8.90;100.00;100145.56;5032249;28;19936;-85
2023/04/18 11:08:44;;;;;;;;;;;;;;;8.79;100.00;100150.31;5031215;28;19961;-85
2023/04/18 11:11:11;;;;;;;;;;;;;;;8.72;100.00;100139.06;5030602;28;19991;-87
2023/04/18 11:13:51;;;;;;;;;;;;;;;8.69;100.00;100149.72;5013060;28;20288;-88
2023/04/18 11:16:29;;;;;;;;;;;;;;;8.71;100.00;100137.31;5014120;28;20418;-88
2023/04/18 11:19:06;;;;;;;;;;;;;;;8.73;100.00;100144.31;5032248;28;19921;-89
2023/04/18 11:21:31;;;;;;;;;;;;;;;8.77;100.00;100134.50;5031617;28;20008;-88
2023/04/18 11:23:57;;;;;;;;;;;;;;;8.79;100.00;100135.34;5014457;28;20007;-85
2023/04/18 11:26:27;;;;;;;;;;;;;;;8.77;100.00;100131.84;5030557;28;20291;-85
2023/04/18 11:28:56;;;;;;;;;;;;;;;8.79;100.00;100124.78;5030739;28;19925;-85
2023/04/18 11:31:23;;;;;;;;;;;;;;;8.82;100.00;100126.44;5012948;28;19921;-85
2023/04/18 11:33:48;;;;;;;;;;;;;;;8.84;100.00;100128.13;5031353;28;19977;-85
2023/04/18 11:36:13;;;;;;;;;;;;;;;8.81;100.00;100128.22;5032223;28;19952;-84
2023/04/18 11:38:39;;;;;;;;;;;;;;;8.83;100.00;100130.81;5013381;28;19921;-84
2023/04/18 11:41:10;;;;;;;;;;;;;;;8.84;100.00;100135.19;5012125;28;19921;-83
2023/04/18 11:43:44;;;;;;;;;;;;;;;8.84;100.00;100133.41;5030092;28;19921;-88
2023/04/18 11:46:10;;;;;;;;;;;;;;;8.84;100.00;100133.41;5012539;28;20403;-85
2023/04/18 11:48:36;;;;;;;;;;;;;;;8.89;100.00;100125.34;5013678;28;19960;-85
2023/04/18 11:51:01;;;;;;;;;;;;;;;8.89;100.00;100131.50;5012806;28;19928;-84
2023/04/18 11:53:31;;;;;;;;;;;;;;;8.89;100.00;100133.28;5013840;28;19940;-83
2023/04/18 11:56:13;;;;;;;;;;;;;;;7.32;100.00;100148.88;5011438;28;19928;-86
2023/04/18 11:58:41;;;;;;;;;;;;;;;6.66;100.00;100139.84;5030929;28;19921;-84
2023/04/18 12:01:16;;;;;;;;;;;;;;;6.36;100.00;100145.69;5012669;28;20068;-83
2023/04/18 12:03:42;;;;;;;;;;;;;;;6.19;100.00;100147.81;5013233;28;20466;-91
2023/04/18 12:06:07;;;;;;;;;;;;;;;5.95;100.00;100138.53;5031715;28;19928;-86
2023/04/18 12:08:33;;;;;;;;;;;;;;;5.91;100.00;100140.38;5013170;28;20291;-87
2023/04/18 12:10:58;;;;;;;;;;;;;;;5.83;100.00;100152.78;5011804;28;19928;-89
2023/04/18 12:13:25;;;;;;;;;;;;;;;5.74;100.00;100145.06;5013240;28;19974;-86
2023/04/18 12:15:51;;;;;;;;;;;;;;;5.61;100.00;100153.16;5011465;28;19921;-86
2023/04/18 12:18:17;;;;;;;;;;;;;;;5.53;100.00;100151.56;5012385;28;19930;-87
2023/04/18 12:20:49;;;;;;;;;;;;;;;5.57;100.00;100158.50;5028932;28;20032;-87
2023/04/18 12:23:34;;;;;;;;;;;;;;;5.54;100.00;100156.78;5013072;28;20780;-87
2023/04/18 12:26:00;;;;;;;;;;;;;;;5.38;100.00;100152.69;5029563;28;20265;-87
2023/04/18 12:28:25;;;;;;;;;;;;;;;5.39;100.00;100147.41;5013655;28;19928;-87
2023/04/18 12:30:56;;;;;;;;;;;;;;;5.31;100.00;100143.13;5013434;28;19917;-87
2023/04/18 12:33:22;;;;;;;;;;;;;;;5.28;100.00;100139.69;5031635;28;19972;-86
2023/04/18 12:35:47;;;;;;;;;;;;;;;5.19;100.00;100150.31;5031414;28;19968;-86
2023/04/18 12:38:12;;;;;;;;;;;;;;;5.20;100.00;100145.94;5031501;28;19921;-88
2023/04/18 12:40:39;;;;;;;;;;;;;;;5.95;100.00;100146.44;5033344;28;19917;-86
2023/04/18 12:43:06;;;;;;;;;;;;;;;6.53;100.00;100142.72;5017237;28;20455;-86
2023/04/18 12:45:32;;;;;;;;;;;;;;;6.81;100.00;100144.78;5035141;28;19917;-87
2023/04/18 12:48:07;;;;;;;;;;;;;;;7.03;100.00;100150.41;5035155;28;20360;-87
2023/04/18 12:50:32;;;;;;;;;;;;;;;7.19;100.00;100139.53;5015379;28;19988;-86
2023/04/18 12:52:59;;;;;;;;;;;;;;;7.28;100.00;100148.09;5034115;28;20376;-87
2023/04/18 12:55:25;;;;;;;;;;;;;;;7.39;100.00;100139.09;5015149;28;19971;-87
2023/04/18 12:57:53;;;;;;;;;;;;;;;7.51;100.00;100151.94;5034070;28;20367;-86
2023/04/18 13:00:19;;;;;;;;;;;;;;;7.59;100.00;100143.84;5016759;28;19933;-87
2023/04/18 13:02:44;;;;;;;;;;;;;;;7.67;100.00;100146.31;5016111;28;19959;-88
2023/04/18 13:05:11;;;;;;;;;;;;;;;7.77;100.00;100150.41;5033958;28;20699;-87
2023/04/18 13:07:39;;;;;;;;;;;;;;;7.85;100.00;100140.56;5015316;28;19932;-86
2023/04/18 13:10:05;;;;;;;;;;;;;;;7.93;100.00;100146.50;5033713;28;19924;-87
2023/04/18 13:12:30;;;;;;;;;;;;;;;8.03;100.00;100138.34;5015205;28;19929;-88
2023/04/18 13:14:55;;;;;;;;;;;;;;;8.08;100.00;100137.31;5034969;28;19924;-87
2023/04/18 13:17:21;;;;;;;;;;;;;;;8.14;100.00;100133.66;5034426;28;19917;-87
2023/04/18 13:19:46;;;;;;;;;;;;;;;8.19;100.00;100131.75;5034141;28;19990;-88
2023/04/18 13:22:11;;;;;;;;;;;;;;;8.20;100.00;100133.47;5015107;28;19925;-87
2023/04/18 13:24:36;;;;;;;;;;;;;;;8.27;100.00;100126.25;5015691;28;20004;-88
2023/04/18 13:27:09;;;;;;;;;;;;;;;8.27;100.00;100121.81;5015341;28;19921;-88
2023/04/18 13:29:34;;;;;;;;;;;;;;;8.31;100.00;100112.91;5033022;28;20030;-88
2023/04/18 13:31:59;;;;;;;;;;;;;;;8.35;100.00;100119.81;5015243;28;20443;-88
2023/04/18 13:34:25;;;;;;;;;;;;;;;8.40;100.00;100118.84;5033664;28;19928;-90
2023/04/18 13:36:50;;;;;;;;;;;;;;;8.42;100.00;100124.94;5016373;28;19925;-90
2023/04/18 13:39:15;;;;;;;;;;;;;;;8.43;100.00;100122.28;5034196;28;20283;-89
2023/04/18 13:41:40;;;;;;;;;;;;;;;8.46;100.00;100119.56;5032767;28;19924;-88
2023/04/18 13:44:07;;;;;;;;;;;;;;;8.50;100.00;100117.69;5034069;28;19921;-90
2023/04/18 13:46:32;;;;;;;;;;;;;;;8.52;100.00;100116.75;5016063;28;19924;-89
2023/04/18 13:48:57;;;;;;;;;;;;;;;8.54;100.00;100114.91;5016000;28;19921;-89
2023/04/18 13:51:26;;;;;;;;;;;;;;;8.60;100.00;100119.16;5029804;28;19982;-89
2023/04/18 13:53:51;;;;;;;;;;;;;;;8.62;100.00;100116.47;5015914;28;20380;-88
2023/04/18 13:56:16;;;;;;;;;;;;;;;8.62;100.00;100112.06;5013851;28;19927;-87
2023/04/18 13:58:44;;;;;;;;;;;;;;;8.64;100.00;100118.16;5033841;28;19964;-87
2023/04/18 14:01:10;;;;;;;;;;;;;;;8.67;100.00;100101.34;5015250;28;19917;-89
2023/04/18 14:03:36;;;;;;;;;;;;;;;8.69;100.00;100092.44;5013612;28;19932;-87
2023/04/18 14:06:01;;;;;;;;;;;;;;;8.75;100.00;100098.50;5015697;28;19921;-89
2023/04/18 14:08:26;;;;;;;;;;;;;;;8.79;100.00;100095.72;5015724;28;20450;-88
2023/04/18 14:10:52;;;;;;;;;;;;;;;8.83;100.00;100101.75;5031782;28;19933;-88
2023/04/18 14:13:17;;;;;;;;;;;;;;;8.83;100.00;100088.53;5014940;28;19980;-88
2023/04/18 14:15:42;;;;;;;;;;;;;;;8.86;100.00;100089.31;5015336;28;19943;-88
2023/04/18 14:18:08;;;;;;;;;;;;;;;8.86;100.00;100084.03;5015407;28;20279;-87
2023/04/18 14:20:33;;;;;;;;;;;;;;;8.85;100.00;100084.94;5028738;28;19917;-87
2023/04/18 14:22:59;;;;;;;;;;;;;;;8.92;100.00;100085.63;5013967;28;19927;-87
2023/04/18 14:25:26;;;;;;;;;;;;;;;8.91;100.00;100087.38;5012582;28;19928;-88
2023/04/18 14:28:02;;;;;;;;;;;;;;;8.90;100.00;100090.06;5014727;28;19917;-88
2023/04/18 14:30:27;;;;;;;;;;;;;;;8.94;100.00;100081.16;5032831;28;19920;-90
2023/04/18 14:32:53;;;;;;;;;;;;;;;7.97;100.00;100083.94;5014569;28;19925;-88
2023/04/18 14:35:18;;;;;;;;;;;;;;;6.86;100.00;100081.44;5033145;28;19917;-89
2023/04/18 14:37:43;;;;;;;;;;;;;;;6.51;100.00;100085.72;5014389;28;19932;-88
2023/04/18 14:40:10;;;;;;;;;;;;;;;6.26;100.00;100078.34;5013506;28;19921;-87
2023/04/18 14:42:35;;;;;;;;;;;;;;;6.07;100.00;100072.59;5030060;28;19929;-87
2023/04/18 14:45:00;;;;;;;;;;;;;;;5.92;100.00;100081.63;5033064;28;19917;-87
2023/04/18 14:47:30;;;;;;;;;;;;;;;5.89;100.00;100073.78;5033005;28;19917;-87
2023/04/18 14:49:55;;;;;;;;;;;;;;;5.90;100.00;100079.91;5012879;28;19979;-87
2023/04/18 14:52:20;;;;;;;;;;;;;;;5.74;100.00;100081.94;5013861;28;20010;-87
2023/04/18 14:54:46;;;;;;;;;;;;;;;5.71;100.00;100074.13;5032914;28;19913;-88
2023/04/18 14:57:11;;;;;;;;;;;;;;;5.56;100.00;100070.88;5029174;28;19944;-86
2023/04/18 14:59:37;;;;;;;;;;;;;;;5.56;100.00;100073.50;5014709;28;19917;-87
2023/04/18 15:02:02;;;;;;;;;;;;;;;5.49;100.00;100074.53;5013968;28;20429;-87
2023/04/18 15:04:27;;;;;;;;;;;;;;;5.48;100.00;100067.53;5031599;28;19924;-87
2023/04/18 15:06:55;;;;;;;;;;;;;;;5.43;100.00;100061.47;5014641;28;19917;-87
2023/04/18 15:09:20;;;;;;;;;;;;;;;5.40;100.00;100054.50;5012009;28;20035;-85
2023/04/18 15:11:45;;;;;;;;;;;;;;;5.27;100.00;100058.25;5011388;28;20008;-85
2023/04/18 15:14:11;;;;;;;;;;;;;;;5.29;100.00;100061.72;5013587;28;19920;-87
2023/04/18 15:16:39;;;;;;;;;;;;;;;5.27;100.00;100064.34;5030828;28;19929;-86
2023/04/18 15:19:04;;;;;;;;;;;;;;;5.22;100.00;100058.31;5030238;28;19963;-87
2023/04/18 15:21:30;;;;;;;;;;;;;;;5.16;100.00;100055.78;5030527;28;19928;-85
2023/04/18 15:23:59;;;;;;;;;;;;;;;5.74;100.00;100050.41;5030099;28;19932;-87
2023/04/18 15:26:24;;;;;;;;;;;;;;;6.45;100.00;100060.41;5030397;28;19921;-86
2023/04/18 15:28:55;;;;;;;;;;;;;;;6.72;100.00;100047.53;5013944;28;19928;-87
2023/04/18 15:31:30;;;;;;;;;;;;;;;6.97;100.00;100052.22;5028883;28;20396;-93
2023/04/18 15:33:57;;;;;;;;;;;;;;;7.12;100.00;100045.72;5027329;28;23011;-86
2023/04/18 15:36:22;;;;;;;;;;;;;;;7.25;100.00;100047.16;5029219;28;19928;-86
2023/04/18 15:38:50;;;;;;;;;;;;;;;7.36;100.00;100033.72;5013642;28;19929;-90
2023/04/18 15:41:25;;;;;;;;;;;;;;;7.43;100.00;100038.75;5027835;28;20300;-91
2023/04/18 15:43:51;;;;;;;;;;;;;;;7.52;100.00;100040.31;5029853;28;19943;-86
2023/04/18 15:46:16;;;;;;;;;;;;;;;7.60;100.00;100040.09;5029720;28;19928;-87
2023/04/18 15:48:41;;;;;;;;;;;;;;;7.74;100.00;100043.22;5029070;28;19921;-86
2023/04/18 15:51:07;;;;;;;;;;;;;;;7.80;100.00;100032.53;5030473;28;19921;-87
2023/04/18 15:53:32;;;;;;;;;;;;;;;7.86;100.00;100046.44;5012471;28;20011;-86
2023/04/18 15:56:00;;;;;;;;;;;;;;;7.92;100.00;100035.72;5029428;28;19917;-86
2023/04/18 15:58:28;;;;;;;;;;;;;;;8.00;100.00;100039.88;5012443;28;19929;-86
2023/04/18 16:00:54;;;;;;;;;;;;;;;8.05;100.00;100036.25;5031747;28;19925;-88
2023/04/18 16:03:20;;;;;;;;;;;;;;;8.11;100.00;100041.34;5027321;28;20265;-86
2023/04/18 16:05:46;;;;;;;;;;;;;;;8.21;100.00;100050.72;5030768;28;20330;-87
2023/04/18 16:08:11;;;;;;;;;;;;;;;8.30;100.00;100039.03;5029772;28;19918;-87
2023/04/18 16:10:40;;;;;;;;;;;;;;;8.34;100.00;100027.47;5010057;28;19921;-86
2023/04/18 16:13:41;;;;;;;;;;;;;;;;;;;;;
2023/04/18 16:16:07;;;;;;;;;;;;;;;8.43;100.00;100037.78;5034115;28;19920;-86
2023/04/18 16:18:32;;;;;;;;;;;;;;;8.45;100.00;100030.69;5034911;28;20343;-86
2023/04/18 16:20:58;;;;;;;;;;;;;;;8.51;100.00;100027.00;5017293;28;19917;-86
2023/04/18 16:23:24;;;;;;;;;;;;;;;8.53;100.00;100033.94;5033167;28;19913;-87
2023/04/18 16:25:53;;;;;;;;;;;;;;;8.56;100.00;100038.28;5032281;28;19928;-87
2023/04/18 16:28:21;;;;;;;;;;;;;;;8.58;100.00;100035.59;5015761;28;20364;-86
2023/04/18 16:30:46;;;;;;;;;;;;;;;8.63;100.00;100036.31;5016034;28;19927;-86
2023/04/18 16:33:11;;;;;;;;;;;;;;;8.66;100.00;100038.84;5016810;28;19917;-87
2023/04/18 16:35:37;;;;;;;;;;;;;;;8.69;100.00;100034.34;5017170;28;19917;-86
2023/04/18 16:38:02;;;;;;;;;;;;;;;8.69;100.00;100044.91;5035307;28;19921;-86
2023/04/18 16:40:29;;;;;;;;;;;;;;;8.75;100.00;100041.22;5013512;28;19928;-86
2023/04/18 16:42:57;;;;;;;;;;;;;;;8.79;100.00;100041.97;5016576;28;19924;-87
2023/04/18 16:45:31;;;;;;;;;;;;;;;8.79;100.00;100040.22;5015540;28;19921;-93
2023/04/18 16:47:57;;;;;;;;;;;;;;;8.80;100.00;100047.22;5014538;28;19917;-87
2023/04/18 16:50:23;;;;;;;;;;;;;;;8.87;100.00;100047.88;5015947;28;20032;-88
2023/04/18 16:52:48;;;;;;;;;;;;;;;8.90;100.00;100048.66;5030531;28;19928;-86
2023/04/18 16:55:19;;;;;;;;;;;;;;;8.91;100.00;100044.25;5011595;28;20309;-90
2023/04/18 16:57:44;;;;;;;;;;;;;;;8.90;100.00;100043.38;5032042;28;19986;-87
2023/04/18 17:00:12;;;;;;;;;;;;;;;8.91;100.00;100050.38;5032708;28;20387;-87
2023/04/18 17:02:41;;;;;;;;;;;;;;;8.94;100.00;100051.22;5033319;28;20276;-87
2023/04/18 17:05:06;;;;;;;;;;;;;;;8.98;100.00;100055.47;5032475;28;19925;-87
2023/04/18 17:07:31;;;;;;;;;;;;;;;8.97;100.00;100051.13;5033575;28;19932;-88
2023/04/18 17:09:57;;;;;;;;;;;;;;;7.67;100.00;100056.63;5034664;28;20032;-87
2023/04/18 17:12:22;;;;;;;;;;;;;;;6.87;100.00;100055.06;5033543;28;19932;-87
2023/04/18 17:14:47;;;;;;;;;;;;;;;6.46;100.00;100061.25;5034046;28;19921;-87
2023/04/18 17:17:13;;;;;;;;;;;;;;;6.27;100.00;100066.94;5017170;28;20427;-87
2023/04/18 17:19:38;;;;;;;;;;;;;;;6.14;100.00;100068.06;5034566;28;20379;-87
2023/04/18 17:22:04;;;;;;;;;;;;;;;6.02;100.00;100068.34;5016066;28;19917;-87
2023/04/18 17:24:29;;;;;;;;;;;;;;;5.91;100.00;100071.13;5016354;28;20414;-87
2023/04/18 17:26:56;;;;;;;;;;;;;;;5.83;100.00;100068.63;5032338;28;20019;-87
2023/04/18 17:29:21;;;;;;;;;;;;;;;5.70;100.00;100069.78;5034445;28;19917;-87
2023/04/18 17:31:46;;;;;;;;;;;;;;;5.67;100.00;100067.19;5015087;28;19931;-87
2023/04/18 17:34:12;;;;;;;;;;;;;;;5.68;100.00;100075.06;5016058;28;20012;-85
2023/04/18 17:36:40;;;;;;;;;;;;;;;5.57;100.00;100062.09;5031230;28;19921;-88
2023/04/18 17:39:05;;;;;;;;;;;;;;;5.50;100.00;100070.13;5033706;28;20016;-87
2023/04/18 17:41:35;;;;;;;;;;;;;;;5.45;100.00;100067.56;5033118;28;20016;-86
2023/04/18 17:44:20;;;;;;;;;;;;;;;5.41;100.00;100068.53;5033958;28;20312;-86
2023/04/18 17:46:45;;;;;;;;;;;;;;;5.36;100.00;100068.59;5015590;28;20372;-87
2023/04/18 17:49:11;;;;;;;;;;;;;;;5.36;100.00;100062.47;5034105;28;19917;-87
2023/04/18 17:51:36;;;;;;;;;;;;;;;5.22;100.00;100067.97;5033983;28;19956;-86
2023/04/18 17:54:04;;;;;;;;;;;;;;;5.13;100.00;100076.84;5034047;28;19917;-86
2023/04/18 17:56:30;;;;;;;;;;;;;;;5.18;100.00;100080.28;5032916;28;20024;-87
2023/04/18 17:58:55;;;;;;;;;;;;;;;6.00;100.00;100066.59;5016225;28;19925;-87